CheckWX is a tool to help pilots better visualize weather data.  It is not intended as a substitute for an official pre-flight weather briefing.

08:21:44 UTC

KILN METAR
Wilmington Airpark
Wilmington, Ohio, USA
Current

28 mins ago

KILN 220754Z AUTO 03004KT 6SM HZ CLR 01/M02 A3029 RMK AO2 SLP276 T00061022
Observed
Feb-22 @ 07:54 UTC
Wind
  • 030° at 4 KTS
Visibility
6 SM
Flight Rules
VFR
Conditions
Haze
Cloud Levels
  • Clear skies
Temperature
C / 34°F
Dewpoint
-2°C / 28°F
Humidity
81%
Altimeter
30.29" Hg
Pressure
1027.6 hPa
Previous

1 hour ago

KILN 220654Z AUTO 00000KT 8SM CLR 02/M02 A3029 RMK AO2 SLP276 T00171017
Observed
Feb-22 @ 06:54 UTC
Visibility
8 SM
Flight Rules
VFR
Cloud Levels
  • Clear skies
Temperature
C / 36°F
Dewpoint
-2°C / 28°F
Humidity
75%
Altimeter
30.29" Hg
Pressure
1027.6 hPa
Previous

2 hours ago

KILN 220554Z AUTO 05003KT 8SM CLR 02/M02 A3029 RMK AO2 SLP277 T00171017 10050 20017 55001
Observed
Feb-22 @ 05:54 UTC
Wind
  • 050° at 3 KTS
Visibility
8 SM
Flight Rules
VFR
Cloud Levels
  • Clear skies
Temperature
C / 36°F
Dewpoint
-2°C / 28°F
Humidity
75%
Altimeter
30.29" Hg
Pressure
1027.7 hPa